Time;durP1;ratioP1;P1;durP2;ratioP2;P2;SDS_P1;SDS_P2;PMS_P1;PMS_P2;Temp;Humidity;BMP_temperature;BMP_pressure;BME280_temperature;BME280_humidity;BME280_pressure;Samples;Min_cycle;Max_cycle;Signal;HPM_P1;HPM_P2
2023/01/22 00:01:20;;;;;;;64.30;45.00;;;;;;;1.71;79.62;101258.02;109366;1272;22023;-74
2023/01/22 00:04:08;;;;;;;61.00;48.50;;;;;;;1.69;79.44;101253.88;109928;1267;21982;-76
2023/01/22 00:06:43;;;;;;;49.80;40.30;;;;;;;1.71;79.48;101252.52;109790;1266;21970;-74
2023/01/22 00:09:31;;;;;;;44.90;37.80;;;;;;;1.73;79.45;101253.41;109555;1272;23038;-76
2023/01/22 00:12:00;;;;;;;38.60;33.40;;;;;;;1.73;79.43;101258.73;109439;1271;23055;-75
2023/01/22 00:14:29;;;;;;;43.00;36.10;;;;;;;1.74;79.34;101262.19;109391;1271;22061;-73
2023/01/22 00:16:57;;;;;;;40.30;34.30;;;;;;;1.74;79.30;101266.81;108886;1276;22101;-75
2023/01/22 00:19:30;;;;;;;43.40;35.20;;;;;;;1.74;79.32;101260.12;108970;1273;24662;-75
2023/01/22 00:22:04;;;;;;;44.70;36.20;;;;;;;1.74;79.31;101259.43;108732;1278;22001;-75
2023/01/22 00:24:35;;;;;;;43.10;34.60;;;;;;;1.73;79.19;101262.16;108771;1278;23727;-75
2023/01/22 00:27:06;;;;;;;48.80;37.50;;;;;;;1.73;79.31;101263.38;108853;1278;23615;-75
2023/01/22 00:29:37;;;;;;;49.90;39.20;;;;;;;1.75;79.36;101263.56;108735;1278;21997;-75
2023/01/22 00:32:08;;;;;;;44.00;36.10;;;;;;;1.76;79.34;101268.39;108793;1278;23120;-75
2023/01/22 00:34:43;;;;;;;42.20;33.50;;;;;;;1.78;79.37;101271.67;109280;1267;21969;-75
2023/01/22 00:37:16;;;;;;;36.50;30.80;;;;;;;1.80;79.34;101272.55;109872;1268;23791;-76
2023/01/22 00:39:49;;;;;;;34.90;28.00;;;;;;;1.80;79.23;101275.14;110042;1264;23719;-74
2023/01/22 00:42:25;;;;;;;37.40;31.00;;;;;;;1.76;79.07;101278.51;109744;1268;21963;-75
2023/01/22 00:44:58;;;;;;;35.50;30.10;;;;;;;1.74;79.10;101283.30;109699;1267;21977;-75
2023/01/22 00:47:36;;;;;;;30.50;27.20;;;;;;;1.75;79.14;101289.31;110384;1259;22006;-75
2023/01/22 00:50:15;;;;;;;34.80;29.40;;;;;;;1.77;79.33;101290.53;110450;1262;21973;-74
2023/01/22 00:52:49;;;;;;;31.60;27.90;;;;;;;1.79;79.30;101293.30;110530;1262;23624;-75
2023/01/22 00:55:20;;;;;;;30.90;27.50;;;;;;;1.79;79.24;101297.95;110255;1262;21980;-75
2023/01/22 00:57:49;;;;;;;36.30;28.90;;;;;;;1.81;79.14;101294.71;110482;1263;22005;-75
2023/01/22 01:00:22;;;;;;;32.20;28.40;;;;;;;1.83;79.20;101296.45;110405;1261;21970;-75
2023/01/22 01:06:16;;;;;;;30.10;26.70;;;;;;;1.80;79.20;101297.95;109729;1268;24311;-75
2023/01/22 01:08:52;;;;;;;31.70;26.70;;;;;;;1.79;79.26;101299.48;109597;1268;21991;-75
2023/01/22 01:11:24;;;;;;;30.10;26.20;;;;;;;1.80;79.25;101298.12;109834;1257;22138;-76
2023/01/22 01:13:55;;;;;;;29.70;24.80;;;;;;;1.81;79.20;101299.16;109347;1273;21985;-74
2023/01/22 01:16:32;;;;;;;29.30;26.20;;;;;;;1.82;79.14;101303.63;109449;1272;25166;-76
2023/01/22 01:19:09;;;;;;;30.00;26.60;;;;;;;1.82;79.08;101301.41;109453;1271;21997;-75
2023/01/22 01:21:37;;;;;;;28.50;24.60;;;;;;;1.81;79.12;101296.75;109290;1272;22095;-75
2023/01/22 01:24:05;;;;;;;27.40;24.20;;;;;;;1.83;79.19;101300.21;109350;1272;21998;-75
2023/01/22 01:26:34;;;;;;;28.00;24.00;;;;;;;1.86;79.17;101303.36;109216;1273;22052;-75
2023/01/22 01:29:04;;;;;;;31.60;24.40;;;;;;;1.86;79.06;101302.84;109432;1273;21992;-74
2023/01/22 01:31:37;;;;;;;25.70;22.70;;;;;;;1.85;79.15;101305.23;109429;1270;23691;-75
2023/01/22 01:34:05;;;;;;;27.90;24.60;;;;;;;1.84;79.08;101308.81;109676;1269;21998;-75
2023/01/22 01:36:35;;;;;;;27.10;23.30;;;;;;;1.81;79.08;101307.23;109927;1269;21991;-77
2023/01/22 01:39:17;;;;;;;26.30;22.90;;;;;;;1.80;79.04;101305.50;109183;1274;23052;-75
2023/01/22 01:41:49;;;;;;;27.80;24.00;;;;;;;1.79;78.98;101305.14;109663;1268;24258;-75
2023/01/22 01:44:22;;;;;;;30.70;24.00;;;;;;;1.80;79.13;101311.00;109820;1268;22014;-75
2023/01/22 01:47:07;;;;;;;28.60;24.90;;;;;;;1.82;79.06;101309.48;109659;1269;21976;-75
2023/01/22 01:49:43;;;;;;;26.50;23.60;;;;;;;1.82;79.03;101308.80;109630;1269;21976;-76
2023/01/22 01:52:19;;;;;;;30.70;27.50;;;;;;;1.81;78.95;101309.45;109660;1269;23649;-75
2023/01/22 01:54:55;;;;;;;29.80;25.90;;;;;;;1.80;79.06;101311.51;109460;1269;21998;-76
2023/01/22 01:57:32;;;;;;;28.30;25.00;;;;;;;1.82;79.12;101312.04;109485;1269;24173;-75
2023/01/22 02:00:09;;;;;;;32.40;27.80;;;;;;;1.83;79.12;101314.98;109718;1269;24317;-74
2023/01/22 02:02:40;;;;;;;31.50;25.10;;;;;;;1.83;79.11;101318.08;109839;1268;24414;-74
2023/01/22 02:05:12;;;;;;;33.90;30.40;;;;;;;1.82;78.96;101309.83;110459;1263;22035;-75
2023/01/22 02:07:42;;;;;;;32.50;28.80;;;;;;;1.82;78.97;101313.77;110416;1262;21970;-74
2023/01/22 02:10:11;;;;;;;32.30;28.70;;;;;;;1.82;79.00;101310.34;110433;1262;22571;-74
2023/01/22 02:12:40;;;;;;;35.30;27.00;;;;;;;1.82;78.99;101315.14;110269;1262;23699;-74
2023/01/22 02:15:09;;;;;;;32.40;26.80;;;;;;;1.83;78.91;101317.05;110396;1262;22006;-75
2023/01/22 02:17:37;;;;;;;32.80;29.30;;;;;;;1.81;78.93;101314.61;110586;1262;21972;-74
2023/01/22 02:20:06;;;;;;;33.00;29.60;;;;;;;1.82;79.07;101315.14;110469;1262;23630;-75
2023/01/22 02:22:37;;;;;;;31.00;24.90;;;;;;;1.85;79.08;101319.30;110172;1262;21976;-75
2023/01/22 02:25:07;;;;;;;30.50;25.50;;;;;;;1.83;79.11;101319.45;110363;1261;21990;-74
2023/01/22 02:27:35;;;;;;;27.80;24.00;;;;;;;1.81;79.08;101320.61;110276;1262;22989;-74
2023/01/22 02:30:06;;;;;;;28.60;24.70;;;;;;;1.82;79.15;101321.32;110443;1262;22000;-74
2023/01/22 02:32:36;;;;;;;30.50;25.80;;;;;;;1.83;79.02;101326.30;110104;1262;23032;-73
2023/01/22 02:35:05;;;;;;;31.20;23.90;;;;;;;1.83;79.10;101329.06;110492;1262;21968;-75
2023/01/22 02:37:34;;;;;;;27.80;24.80;;;;;;;1.84;79.08;101331.30;110594;1262;21989;-75
2023/01/22 02:40:05;;;;;;;28.90;24.40;;;;;;;1.83;79.02;101329.23;110429;1262;22903;-75
2023/01/22 02:42:35;;;;;;;31.00;25.80;;;;;;;1.81;79.10;101327.48;110292;1262;23048;-77
2023/01/22 02:45:03;;;;;;;33.10;27.00;;;;;;;1.83;79.08;101330.43;110159;1262;23685;-76
2023/01/22 02:47:35;;;;;;;31.70;24.30;;;;;;;1.84;79.06;101332.15;110264;1263;21968;-75
2023/01/22 02:50:04;;;;;;;33.80;26.60;;;;;;;1.84;79.03;101333.02;110572;1262;22017;-75
2023/01/22 02:52:34;;;;;;;36.80;28.90;;;;;;;1.84;79.07;101335.42;110359;1262;23753;-75
2023/01/22 02:55:02;;;;;;;36.20;27.20;;;;;;;1.82;79.06;101334.36;110386;1262;22067;-74
2023/01/22 02:57:30;;;;;;;33.30;27.30;;;;;;;1.82;79.09;101339.35;109589;1267;23036;-75
2023/01/22 03:00:01;;;;;;;34.60;27.60;;;;;;;1.83;79.05;101342.27;109841;1267;21980;-75
2023/01/22 03:02:29;;;;;;;33.70;27.40;;;;;;;1.84;79.01;101345.89;109645;1267;22464;-74
2023/01/22 03:05:02;;;;;;;36.50;29.30;;;;;;;1.84;78.99;101350.86;109035;1272;22134;-75
2023/01/22 03:07:41;;;;;;;31.50;25.50;;;;;;;1.81;78.92;101354.26;109395;1272;22073;-75
2023/01/22 03:10:19;;;;;;;35.70;30.00;;;;;;;1.78;78.94;101352.00;109260;1272;23059;-75
2023/01/22 03:21:15;;;;;;;36.50;29.80;;;;;;;1.79;79.09;101357.14;110003;1268;23742;-75
2023/01/22 03:23:50;;;;;;;34.20;28.80;;;;;;;1.80;79.14;101360.77;110335;1262;23054;-77
2023/01/22 03:26:21;;;;;;;33.70;29.50;;;;;;;1.83;79.13;101364.06;110069;1268;22977;-76
2023/01/22 03:28:51;;;;;;;40.40;31.30;;;;;;;1.85;79.04;101361.88;109536;1268;21985;-78
2023/01/22 03:31:20;;;;;;;38.60;31.00;;;;;;;1.85;79.00;101366.50;109703;1268;22000;-77
2023/01/22 03:33:51;;;;;;;37.90;31.40;;;;;;;1.84;78.91;101373.00;109409;1273;22461;-75
2023/01/22 03:36:24;;;;;;;38.60;33.20;;;;;;;1.84;78.97;101375.75;109276;1273;23637;-74
2023/01/22 03:38:54;;;;;;;40.50;32.60;;;;;;;1.81;78.82;101378.46;109275;1273;22991;-74
2023/01/22 03:41:23;;;;;;;40.10;33.90;;;;;;;1.79;78.88;101377.23;109225;1272;21986;-75
2023/01/22 03:43:53;;;;;;;35.90;31.60;;;;;;;1.79;78.93;101373.80;109343;1268;21994;-76
2023/01/22 03:46:26;;;;;;;37.70;32.70;;;;;;;1.79;78.98;101379.46;109677;1269;21987;-75
2023/01/22 03:48:56;;;;;;;35.30;29.90;;;;;;;1.78;78.98;101383.40;109833;1268;23693;-75
2023/01/22 03:51:26;;;;;;;35.20;27.70;;;;;;;1.76;78.96;101381.48;110143;1263;23069;-74
2023/01/22 03:53:54;;;;;;;28.40;25.30;;;;;;;1.76;79.03;101382.17;110298;1262;23030;-75
2023/01/22 03:56:25;;;;;;;32.10;26.30;;;;;;;1.77;79.01;101382.18;110289;1262;21985;-75
2023/01/22 03:58:57;;;;;;;29.20;24.00;;;;;;;1.78;79.00;101384.42;110413;1262;22206;-75
2023/01/22 04:01:28;;;;;;;31.90;25.60;;;;;;;1.79;78.98;101383.59;110439;1262;23710;-74
2023/01/22 04:03:57;;;;;;;28.50;24.80;;;;;;;1.78;79.05;101384.94;110233;1262;21988;-75
2023/01/22 04:06:27;;;;;;;29.50;25.00;;;;;;;1.79;79.00;101394.73;110396;1261;23021;-75
2023/01/22 04:08:56;;;;;;;27.90;22.90;;;;;;;1.81;79.11;101398.89;110098;1254;23826;-75
2023/01/22 04:11:31;;;;;;;28.20;23.40;;;;;;;1.82;79.10;101402.16;110487;1262;21975;-74
2023/01/22 04:13:59;;;;;;;30.20;23.40;;;;;;;1.83;79.19;101404.92;110397;1262;22376;-75
2023/01/22 04:16:30;;;;;;;31.60;22.90;;;;;;;1.85;79.20;101405.80;110110;1267;21977;-74
2023/01/22 04:19:04;;;;;;;29.00;24.30;;;;;;;1.84;79.03;101408.20;109968;1268;22082;-74
2023/01/22 04:21:37;;;;;;;32.30;23.80;;;;;;;1.85;79.03;101409.08;109622;1268;23715;-75
2023/01/22 04:24:14;;;;;;;53.40;45.80;;;;;;;1.85;79.04;101412.16;109954;1267;22014;-75
2023/01/22 04:26:43;;;;;;;28.70;24.20;;;;;;;1.85;78.99;101410.27;109314;1273;23739;-76
2023/01/22 04:29:19;;;;;;;32.90;24.30;;;;;;;1.84;78.99;101413.70;109339;1273;23129;-75
2023/01/22 04:31:49;;;;;;;28.70;22.80;;;;;;;1.83;78.99;101410.41;109253;1273;23622;-75
2023/01/22 04:34:46;;;;;;;34.40;25.40;;;;;;;1.81;79.03;101412.44;109321;1268;22012;-75
2023/01/22 04:37:24;;;;;;;31.90;26.30;;;;;;;1.79;79.02;101413.96;109547;1268;23704;-75
2023/01/22 04:39:55;;;;;;;33.80;26.90;;;;;;;1.79;79.07;101409.86;109886;1268;23747;-75
2023/01/22 04:42:25;;;;;;;31.20;24.80;;;;;;;1.81;79.14;101409.52;109693;1269;21983;-74
2023/01/22 04:45:04;;;;;;;32.40;23.70;;;;;;;1.82;78.97;101410.05;109661;1268;21980;-75
2023/01/22 04:47:41;;;;;;;32.60;24.60;;;;;;;1.81;79.02;101408.49;109671;1268;23876;-75
2023/01/22 04:50:29;;;;;;;35.00;23.50;;;;;;;1.80;79.05;101409.17;109405;1268;22869;-75
2023/01/22 04:53:00;;;;;;;31.60;22.20;;;;;;;1.79;79.07;101406.41;110459;1262;23621;-75
2023/01/22 04:55:41;;;;;;;35.60;22.40;;;;;;;1.79;79.08;101404.86;110276;1262;22748;-76
2023/01/22 04:58:14;;;;;;;30.70;21.40;;;;;;;1.75;78.94;101404.28;110297;1262;21980;-75
2023/01/22 05:00:46;;;;;;;24.50;20.50;;;;;;;1.75;79.07;101410.64;110566;1262;21977;-76
2023/01/22 05:03:18;;;;;;;28.60;21.70;;;;;;;1.72;79.01;101410.09;110600;1260;21972;-75
2023/01/22 05:05:56;;;;;;;30.00;23.80;;;;;;;1.68;79.08;101401.94;110441;1262;24371;-76
2023/01/22 05:08:31;;;;;;;26.10;21.90;;;;;;;1.67;79.14;101403.98;110412;1262;21974;-75
2023/01/22 05:11:09;;;;;;;27.50;21.30;;;;;;;1.66;79.15;101404.31;110558;1262;22007;-75
2023/01/22 05:13:54;;;;;;;30.00;21.80;;;;;;;1.62;79.17;101407.69;110118;1267;22013;-75
2023/01/22 05:16:30;;;;;;;29.10;21.20;;;;;;;1.60;79.28;101411.95;110038;1267;22005;-75
2023/01/22 05:19:08;;;;;;;25.60;20.70;;;;;;;1.59;79.33;101418.45;109795;1267;21991;-75
2023/01/22 05:21:51;;;;;;;23.70;19.30;;;;;;;1.59;79.36;101416.73;110096;1267;23162;-75
2023/01/22 05:24:29;;;;;;;24.20;20.70;;;;;;;1.58;79.36;101421.02;109603;1267;23708;-75
2023/01/22 05:26:57;;;;;;;23.70;20.40;;;;;;;1.57;79.37;101419.97;109768;1267;23693;-75
2023/01/22 05:29:30;;;;;;;25.40;20.70;;;;;;;1.58;79.47;101428.05;109787;1267;23058;-76
2023/01/22 05:32:14;;;;;;;28.50;22.30;;;;;;;1.59;79.51;101431.14;109579;1268;22092;-75
2023/01/22 05:34:54;;;;;;;22.80;19.70;;;;;;;1.58;79.54;101433.53;109932;1268;22496;-76
2023/01/22 05:37:22;;;;;;;25.10;21.00;;;;;;;1.57;79.56;101442.96;109938;1268;22996;-76
2023/01/22 05:40:00;;;;;;;25.10;22.20;;;;;;;1.57;79.52;101450.84;109218;1273;23011;-77
2023/01/22 05:42:44;;;;;;;28.70;21.50;;;;;;;1.56;79.55;101456.50;109240;1274;21984;-76
2023/01/22 05:45:21;;;;;;;28.00;23.60;;;;;;;1.57;79.62;101456.67;109179;1274;22075;-74
2023/01/22 05:48:25;;;;;;;23.00;20.20;;;;;;;1.59;79.67;101456.55;109232;1274;24490;-75
2023/01/22 05:51:17;;;;;;;22.40;19.00;;;;;;;1.59;79.67;101456.54;109683;1268;21986;-75
2023/01/22 05:53:51;;;;;;;22.40;19.10;;;;;;;1.59;79.58;101460.83;109754;1268;21999;-74
2023/01/22 05:56:28;;;;;;;22.50;17.30;;;;;;;1.57;79.70;101456.52;109002;1275;22989;-75
2023/01/22 05:59:06;;;;;;;21.80;17.30;;;;;;;1.55;79.61;101452.70;109604;1269;23723;-75
2023/01/22 06:02:03;;;;;;;22.60;18.60;;;;;;;1.53;79.76;101456.79;109868;1268;21988;-74
2023/01/22 06:04:39;;;;;;;18.50;16.50;;;;;;;1.52;79.72;101457.30;109716;1268;21971;-75
2023/01/22 06:07:33;;;;;;;17.60;15.70;;;;;;;1.53;79.80;101459.88;108996;1271;22001;-75
2023/01/22 06:10:04;;;;;;;16.20;14.50;;;;;;;1.53;79.76;101459.19;109001;1274;23758;-75
2023/01/22 06:12:35;;;;;;;;;;;;;;;1.53;79.85;101457.83;109002;1274;24315;-76
2023/01/22 06:15:04;;;;;;;18.60;15.50;;;;;;;1.48;79.89;101460.48;109466;1268;21987;-75
2023/01/22 06:17:38;;;;;;;16.10;14.40;;;;;;;1.46;80.01;101465.94;109670;1268;22359;-76
2023/01/22 06:20:12;;;;;;;15.20;13.60;;;;;;;1.47;79.99;101466.98;109999;1268;22130;-75
2023/01/22 06:22:50;;;;;;;15.60;13.90;;;;;;;1.47;79.88;101466.46;109187;1273;23686;-75
2023/01/22 06:25:19;;;;;;;17.00;15.00;;;;;;;1.46;79.95;101475.54;108845;1276;22051;-75
2023/01/22 06:28:15;;;;;;;19.00;14.70;;;;;;;1.46;80.04;101482.40;108991;1275;22038;-75
2023/01/22 06:30:51;;;;;;;18.40;15.30;;;;;;;1.48;80.01;101490.69;109029;1275;22060;-75
2023/01/22 06:33:27;;;;;;;20.00;17.60;;;;;;;1.49;80.01;101494.13;108776;1279;22322;-76
2023/01/22 06:35:56;;;;;;;20.20;18.10;;;;;;;1.53;80.04;101500.53;108757;1279;22071;-76
2023/01/22 06:38:33;;;;;;;22.30;17.20;;;;;;;1.54;80.00;101504.85;108791;1279;24318;-76
2023/01/22 06:41:09;;;;;;;23.30;17.00;;;;;;;1.54;79.95;101511.02;108803;1274;21980;-77
2023/01/22 06:43:46;;;;;;;21.50;18.40;;;;;;;1.55;80.03;101510.02;109203;1272;22858;-74
2023/01/22 06:46:22;;;;;;;20.10;15.90;;;;;;;1.56;80.03;101511.23;109354;1271;22011;-74
2023/01/22 06:49:10;;;;;;;18.80;15.70;;;;;;;1.58;80.11;101513.15;109428;1270;24316;-74
2023/01/22 06:51:43;;;;;;;15.70;14.00;;;;;;;1.58;80.03;101513.49;109673;1267;21983;-76
2023/01/22 06:54:13;;;;;;;17.00;14.50;;;;;;;1.59;80.04;101515.39;110379;1263;21994;-75
2023/01/22 06:56:42;;;;;;;15.10;13.50;;;;;;;1.60;79.95;101512.31;109932;1267;23602;-73
2023/01/22 06:59:21;;;;;;;13.80;12.40;;;;;;;1.62;79.86;101513.21;110110;1262;21975;-74
2023/01/22 07:01:56;;;;;;;17.20;15.40;;;;;;;1.62;79.96;101512.37;110360;1262;21968;-75
2023/01/22 07:04:27;;;;;;;19.10;15.30;;;;;;;1.62;79.98;101511.84;110237;1265;21983;-75
2023/01/22 07:06:56;;;;;;;15.10;12.90;;;;;;;1.63;79.93;101514.44;110012;1267;22001;-75
2023/01/22 07:09:27;;;;;;;16.40;13.70;;;;;;;1.64;79.93;101519.27;110046;1266;21978;-74
2023/01/22 07:12:05;;;;;;;15.60;13.30;;;;;;;1.64;79.84;101522.34;109329;1271;23673;-73
2023/01/22 07:14:36;;;;;;;16.20;13.60;;;;;;;1.62;79.84;101524.89;109360;1271;21990;-76
2023/01/22 07:17:05;;;;;;;16.60;13.70;;;;;;;1.63;79.88;101524.91;109467;1270;21997;-75
2023/01/22 07:19:33;;;;;;;18.20;14.10;;;;;;;1.64;80.01;101521.67;109058;1273;22264;-76
2023/01/22 07:22:01;;;;;;;16.40;13.80;;;;;;;1.66;79.82;101525.14;109163;1270;23049;-75
2023/01/22 07:24:30;;;;;;;16.50;14.10;;;;;;;1.66;79.86;101534.40;109134;1273;22003;-73
2023/01/22 07:27:00;;;;;;;18.20;15.20;;;;;;;1.69;79.97;101541.13;109341;1271;22681;-75
2023/01/22 07:29:32;;;;;;;20.50;14.70;;;;;;;1.69;79.92;101546.11;109194;1269;23721;-75
2023/01/22 07:32:06;;;;;;;18.60;16.40;;;;;;;1.67;79.87;101550.20;109640;1266;23617;-74
2023/01/22 07:34:36;;;;;;;18.40;16.40;;;;;;;1.64;79.82;101555.64;109631;1269;22050;-75
2023/01/22 07:37:08;;;;;;;18.30;16.40;;;;;;;1.64;79.87;101558.21;109560;1262;23597;-75
2023/01/22 07:39:37;;;;;;;22.10;17.60;;;;;;;1.64;79.82;101561.48;110212;1263;21973;-75
2023/01/22 07:42:09;;;;;;;20.10;18.00;;;;;;;1.66;79.91;101560.83;110530;1262;23836;-74
2023/01/22 07:44:43;;;;;;;17.40;15.60;;;;;;;1.67;79.85;101560.84;110452;1262;21976;-74
2023/01/22 07:47:13;;;;;;;19.50;17.00;;;;;;;1.64;79.78;101562.85;110052;1266;23596;-75
2023/01/22 07:49:49;;;;;;;21.10;18.50;;;;;;;1.60;79.89;101559.16;110012;1266;23777;-74
2023/01/22 07:52:24;;;;;;;23.10;20.20;;;;;;;1.61;79.91;101563.98;110157;1266;22995;-74
2023/01/22 07:54:56;;;;;;;22.20;18.50;;;;;;;1.64;79.93;101566.27;109511;1271;21979;-74
2023/01/22 07:57:24;;;;;;;20.80;16.90;;;;;;;1.63;79.89;101571.59;109413;1271;21995;-74
2023/01/22 08:00:00;;;;;;;20.20;17.30;;;;;;;1.61;79.87;101572.75;109320;1270;23036;-75
2023/01/22 08:02:28;;;;;;;24.10;18.10;;;;;;;1.60;79.95;101576.00;109682;1270;22013;-76
2023/01/22 08:05:32;;;;;;;22.80;18.90;;;;;;;1.62;80.06;101576.87;109565;1271;22260;-82
2023/01/22 08:08:17;;;;;;;19.30;16.90;;;;;;;1.61;80.10;101571.89;109058;1275;23059;-74
2023/01/22 08:10:47;;;;;;;20.00;16.10;;;;;;;1.63;80.09;101575.54;108656;1283;23635;-73
2023/01/22 08:13:16;;;;;;;20.40;17.00;;;;;;;1.68;80.14;101575.61;108687;1279;22546;-75
2023/01/22 08:15:44;;;;;;;22.50;18.50;;;;;;;1.73;80.12;101571.41;108934;1278;21994;-74
2023/01/22 08:18:12;;;;;;;21.50;19.20;;;;;;;1.76;80.09;101570.25;108763;1279;23222;-73
2023/01/22 08:21:11;;;;;;;23.90;19.40;;;;;;;1.79;80.09;101573.07;108788;1275;22272;-74
2023/01/22 08:23:41;;;;;;;26.80;21.80;;;;;;;1.82;80.09;101568.48;108752;1279;21987;-76
2023/01/22 08:26:29;;;;;;;22.20;19.80;;;;;;;1.84;80.02;101571.27;108781;1279;21999;-75
2023/01/22 08:29:28;;;;;;;22.80;20.10;;;;;;;1.76;79.90;101571.13;109002;1273;21985;-73
2023/01/22 08:31:56;;;;;;;23.20;19.90;;;;;;;1.74;79.89;101575.05;109172;1273;21978;-76
2023/01/22 08:34:32;;;;;;;22.60;20.20;;;;;;;1.74;79.96;101579.85;109052;1273;21962;-75
2023/01/22 08:37:00;;;;;;;26.00;22.10;;;;;;;1.73;79.89;101585.14;109261;1269;21977;-75
2023/01/22 08:39:32;;;;;;;27.70;24.20;;;;;;;1.75;79.89;101591.02;109687;1269;21990;-74
2023/01/22 08:42:00;;;;;;;25.80;23.30;;;;;;;1.75;79.94;101591.19;109730;1269;21982;-74
2023/01/22 08:44:32;;;;;;;31.60;24.00;;;;;;;1.76;79.93;101597.39;109957;1263;23701;-74
2023/01/22 08:47:03;;;;;;;27.40;24.20;;;;;;;1.77;79.95;101601.70;110086;1263;21991;-74
2023/01/22 08:49:31;;;;;;;24.00;21.40;;;;;;;1.77;79.97;101609.08;110420;1262;23125;-73
2023/01/22 08:51:59;;;;;;;27.40;22.50;;;;;;;1.79;79.99;101609.80;110428;1263;22042;-74
2023/01/22 08:54:29;;;;;;;24.00;19.60;;;;;;;1.83;79.93;101614.50;110478;1263;21992;-74
2023/01/22 08:56:57;;;;;;;26.30;20.80;;;;;;;1.88;80.10;101619.07;110142;1262;21986;-75
2023/01/22 08:59:25;;;;;;;28.10;21.30;;;;;;;1.89;79.96;101617.71;110471;1263;21970;-73
2023/01/22 09:01:53;;;;;;;24.70;20.70;;;;;;;1.91;79.98;101618.94;110607;1263;21971;-75
2023/01/22 09:04:22;;;;;;;22.50;19.70;;;;;;;1.93;79.92;101619.15;109915;1268;23777;-74
2023/01/22 09:06:53;;;;;;;24.60;20.10;;;;;;;1.98;79.98;101624.55;110012;1267;22398;-73
2023/01/22 09:09:21;;;;;;;23.40;20.80;;;;;;;1.95;79.75;101622.62;109941;1258;23055;-75
2023/01/22 09:11:49;;;;;;;25.20;20.90;;;;;;;1.94;79.82;101625.35;109373;1273;23737;-76
2023/01/22 09:14:17;;;;;;;24.20;21.60;;;;;;;1.98;79.91;101636.41;109460;1273;22070;-76
2023/01/22 09:16:46;;;;;;;25.90;22.10;;;;;;;2.01;79.82;101639.39;109452;1271;22101;-78
2023/01/22 09:19:18;;;;;;;27.00;24.10;;;;;;;1.96;79.65;101643.07;109491;1271;23335;-79
2023/01/22 09:21:50;;;;;;;32.40;24.80;;;;;;;1.91;79.67;101639.89;109524;1269;21970;-76
2023/01/22 09:24:24;;;;;;;28.50;23.40;;;;;;;1.91;79.67;101644.52;109351;1272;22003;-76
2023/01/22 09:26:55;;;;;;;47.40;33.40;;;;;;;1.90;79.63;101646.39;109125;1272;23794;-76
2023/01/22 09:29:31;;;;;;;51.80;35.60;;;;;;;1.92;79.80;101646.94;109240;1266;21984;-75
2023/01/22 09:31:59;;;;;;;40.80;30.90;;;;;;;1.93;79.74;101647.48;110091;1266;21976;-75
2023/01/22 09:34:28;;;;;;;36.40;28.20;;;;;;;1.93;79.70;101643.53;110084;1266;21978;-74
2023/01/22 09:37:13;;;;;;;36.70;28.50;;;;;;;1.92;79.63;101647.30;109714;1266;21974;-78
2023/01/22 09:39:48;;;;;;;35.30;28.30;;;;;;;1.94;79.74;101652.82;109774;1269;23876;-76
2023/01/22 09:42:33;;;;;;;33.00;26.50;;;;;;;1.95;79.78;101653.86;109486;1266;23763;-74
2023/01/22 09:45:10;;;;;;;29.70;26.60;;;;;;;1.94;79.81;101658.15;110054;1266;23030;-76
2023/01/22 09:47:50;;;;;;;28.90;25.70;;;;;;;1.95;79.76;101661.77;110071;1266;24160;-75
2023/01/22 09:50:27;;;;;;;31.40;27.90;;;;;;;1.97;79.80;101664.04;106654;1266;4525982;-76
2023/01/22 09:53:07;;;;;;;33.60;29.10;;;;;;;1.96;79.77;101660.56;109554;1272;21995;-73
2023/01/22 09:56:05;;;;;;;31.50;27.60;;;;;;;1.97;79.72;101660.95;108958;1278;22031;-76
2023/01/22 09:59:12;;;;;;;32.20;25.60;;;;;;;1.94;79.74;101656.93;109274;1274;21988;-75
2023/01/22 10:01:44;;;;;;;31.10;27.30;;;;;;;1.96;79.80;101659.88;109226;1274;22000;-74
2023/01/22 10:05:16;;;;;;;34.70;28.30;;;;;;;1.99;79.82;101665.27;109129;1276;22994;-78
2023/01/22 10:07:53;;;;;;;34.20;28.60;;;;;;;1.98;79.82;101663.54;108694;1281;23003;-75
2023/01/22 10:10:26;;;;;;;32.30;25.60;;;;;;;1.97;79.79;101660.09;108585;1278;23708;-76
2023/01/22 10:13:13;;;;;;;30.20;26.40;;;;;;;1.99;79.71;101661.84;108766;1276;23721;-74
2023/01/22 10:15:46;;;;;;;29.00;25.60;;;;;;;2.03;79.66;101666.02;108947;1277;22078;-75
2023/01/22 10:18:39;;;;;;;32.70;27.50;;;;;;;2.02;79.60;101662.41;109030;1277;23797;-75
2023/01/22 10:21:31;;;;;;;34.70;28.30;;;;;;;2.03;79.69;101655.55;108940;1277;22050;-74
2023/01/22 10:23:59;;;;;;;30.90;26.60;;;;;;;2.09;79.84;101655.32;108799;1277;22809;-74
2023/01/22 10:26:45;;;;;;;30.60;26.50;;;;;;;2.11;79.72;101652.94;108844;1278;22035;-75
2023/01/22 10:29:36;;;;;;;36.60;29.70;;;;;;;2.10;79.63;101651.05;109060;1273;21774;-75
2023/01/22 10:32:28;;;;;;;32.50;26.80;;;;;;;2.11;79.63;101649.02;109210;1273;23042;-75
2023/01/22 10:35:17;;;;;;;36.30;28.40;;;;;;;2.08;79.54;101649.13;109335;1273;22003;-76
2023/01/22 10:37:57;;;;;;;36.70;28.70;;;;;;;2.09;79.64;101649.84;109168;1273;22715;-75
2023/01/22 10:40:42;;;;;;;34.70;29.10;;;;;;;2.14;79.64;101649.06;109131;1268;21989;-75
2023/01/22 10:43:17;;;;;;;;;;;;;;;2.19;79.65;101650.17;109500;1268;21989;-74
2023/01/22 10:45:54;;;;;;;31.80;26.90;;;;;;;2.13;79.64;101649.39;109711;1268;22477;-73
2023/01/22 10:48:24;;;;;;;33.20;27.70;;;;;;;2.12;79.61;101649.02;109919;1268;22751;-73
2023/01/22 10:51:12;;;;;;;34.90;27.40;;;;;;;2.13;79.63;101644.05;110214;1262;22070;-74
2023/01/22 10:53:53;;;;;;;36.30;31.80;;;;;;;2.14;79.54;101648.02;110563;1257;23834;-74
2023/01/22 10:56:39;;;;;;;39.00;30.60;;;;;;;2.12;79.46;101646.45;110335;1262;21972;-74
2023/01/22 10:59:27;;;;;;;37.20;30.80;;;;;;;2.12;79.48;101645.76;110520;1262;21983;-73
2023/01/22 11:02:21;;;;;;;32.00;27.10;;;;;;;2.11;79.38;101640.23;110312;1262;21972;-73
2023/01/22 11:04:53;;;;;;;37.10;29.30;;;;;;;2.10;79.47;101640.40;110555;1262;23606;-74
2023/01/22 11:07:34;;;;;;;42.90;33.10;;;;;;;2.15;79.50;101640.32;110576;1262;21972;-74
2023/01/22 11:10:15;;;;;;;40.00;32.60;;;;;;;2.20;79.54;101641.78;110254;1262;22008;-73
2023/01/22 11:12:57;;;;;;;38.20;32.00;;;;;;;2.23;79.32;101640.63;110559;1258;21932;-74
2023/01/22 11:15:45;;;;;;;36.80;30.70;;;;;;;2.25;79.31;101638.25;110378;1262;21975;-74
2023/01/22 11:18:50;;;;;;;46.40;37.00;;;;;;;2.26;79.31;101640.84;110594;1260;21980;-73
2023/01/22 11:21:31;;;;;;;42.40;34.10;;;;;;;2.23;79.15;101636.52;109499;1270;22763;-74
2023/01/22 11:24:28;;;;;;;37.10;33.00;;;;;;;2.26;79.30;101636.88;109862;1269;21976;-74
2023/01/22 11:27:20;;;;;;;39.10;30.90;;;;;;;2.27;79.33;101631.25;109949;1269;23614;-74
2023/01/22 11:30:22;;;;;;;46.50;37.10;;;;;;;2.30;79.22;101625.80;110132;1269;23706;-74
2023/01/22 11:33:17;;;;;;;47.60;39.20;;;;;;;2.32;79.29;101623.43;109903;1269;22763;-73
2023/01/22 11:36:08;;;;;;;48.30;40.10;;;;;;;2.39;79.56;101626.27;109994;1255;23225;-74
2023/01/22 11:39:24;;;;;;;49.30;42.30;;;;;;;2.50;79.63;101626.65;109682;1266;23075;-75
2023/01/22 11:42:08;;;;;;;42.90;34.40;;;;;;;2.58;79.44;101625.23;109223;1273;25292;-75
2023/01/22 11:45:09;;;;;;;39.90;34.60;;;;;;;2.61;79.24;101625.11;109171;1273;24432;-74
2023/01/22 11:48:36;;;;;;;42.70;34.50;;;;;;;2.63;79.14;101624.44;109259;1273;22051;-78
2023/01/22 11:51:08;;;;;;;52.40;38.00;;;;;;;2.65;79.14;101622.75;108947;1273;23046;-76
2023/01/22 11:54:50;;;;;;;48.20;38.40;;;;;;;2.71;78.92;101623.52;108544;1282;22056;-75
2023/01/22 11:57:47;;;;;;;54.60;40.10;;;;;;;2.73;78.90;101625.27;108615;1278;21993;-76
2023/01/22 12:00:47;;;;;;;51.10;37.60;;;;;;;2.75;78.80;101626.15;108702;1277;22136;-75
2023/01/22 12:04:03;;;;;;;50.20;38.10;;;;;;;2.77;78.61;101628.07;108919;1277;22014;-77